Time;durP1;ratioP1;P1;durP2;ratioP2;P2;SDS_P1;SDS_P2;PMS_P1;PMS_P2;Temp;Humidity;BMP_temperature;BMP_pressure;BME280_temperature;BME280_humidity;BME280_pressure;Samples;Min_cycle;Max_cycle;Signal;HPM_P1;HPM_P2
2023/04/10 13:29:18;;;;;;;16.50;14.83;;;;;;;;;;5524250;24;20073;-93
2023/04/10 13:31:47;;;;;;;15.43;13.52;;;;;;;;;;4875123;29;20069;-91
2023/04/10 13:37:19;;;;;;;;;;;;;;;;;;;;;
2023/04/10 13:45:41;;;;;;;18.60;16.60;;;;;;;;;;5038167;23;20080;-95
2023/04/10 13:51:34;;;;;;;18.70;16.60;;;;;;;;;;4838878;29;20159;-94
2023/04/10 13:54:20;;;;;;;21.70;16.98;;;;;;;;;;4836761;29;20041;-95
2023/04/10 13:57:22;;;;;;;;;;;;;;;;;;;;;
2023/04/10 15:06:16;;;;;;;15.27;13.68;;;;;;;;;;5778458;23;20020;-96
2023/04/10 16:04:23;;;;;;;20.35;16.23;;;;;;;;;;5273053;23;20885;31
2023/04/10 17:30:26;;;;;;;23.00;17.08;;;;;;;;;;5050606;23;20028;-93
2023/04/10 17:48:09;;;;;;;;;;;;;;;;;;;;;
2023/04/10 18:02:59;;;;;;;42.63;26.33;;;;;;;;;;5665257;23;20274;-93
2023/04/10 18:18:56;;;;;;;30.05;19.13;;;;;;;;;;5523210;23;20064;-96
2023/04/10 18:38:45;;;;;;;26.08;18.38;;;;;;;;;;5685901;23;20127;-90
2023/04/10 18:52:29;;;;;;;29.02;19.33;;;;;;;;;;4899686;23;20515;-92
2023/04/10 18:54:56;;;;;;;32.33;19.58;;;;;;;;;;4872014;29;20034;-89
2023/04/10 18:57:26;;;;;;;28.25;18.67;;;;;;;;;;4871491;29;20109;-94
2023/04/10 19:00:16;;;;;;;27.80;19.08;;;;;;;;;;4862036;29;20022;-96
2023/04/10 19:23:23;;;;;;;;;;;;;;;;;;;;;
2023/04/10 19:32:08;;;;;;;;;;;;;;;;;;;;;
2023/04/10 19:38:05;;;;;;;28.65;19.35;;;;;;;;;;4859484;29;20066;-93
2023/04/10 19:40:40;;;;;;;33.25;21.33;;;;;;;;;;4832235;29;20042;-94
2023/04/10 19:48:54;;;;;;;27.95;19.17;;;;;;;;;;5170523;23;20068;-95
2023/04/10 19:51:23;;;;;;;32.17;18.25;;;;;;;;;;4913028;29;20052;-96
2023/04/10 19:54:02;;;;;;;31.90;19.50;;;;;;;;;;4906774;29;20762;-95
2023/04/10 19:56:35;;;;;;;31.30;20.63;;;;;;;;;;4895242;29;20049;-94
2023/04/10 19:59:04;;;;;;;47.58;30.65;;;;;;;;;;4918214;29;20030;-96
2023/04/10 20:01:33;;;;;;;49.65;32.10;;;;;;;;;;4910472;29;20033;-96
2023/04/10 20:04:04;;;;;;;48.97;31.95;;;;;;;;;;4907946;29;20037;-96
2023/04/10 20:57:18;;;;;;;36.08;22.90;;;;;;;;;;4841179;29;20124;-96
2023/04/10 21:02:49;;;;;;;;;;;;;;;;;;;;;
2023/04/10 21:05:19;;;;;;;44.85;25.10;;;;;;;;;;4857598;29;20057;-96
2023/04/10 21:08:11;;;;;;;36.20;22.50;;;;;;;;;;4853052;29;20042;-95
2023/04/10 21:11:07;;;;;;;38.97;22.50;;;;;;;;;;4850281;29;20044;-96
2023/04/10 21:13:46;;;;;;;44.72;25.23;;;;;;;;;;4860840;29;20418;-96
2023/04/10 21:16:29;;;;;;;40.85;24.63;;;;;;;;;;4845774;29;20041;-96
2023/04/10 21:18:55;;;;;;;43.90;24.77;;;;;;;;;;4831853;29;20133;-96
2023/04/10 21:21:29;;;;;;;39.85;24.08;;;;;;;;;;4846584;29;20118;-95
2023/04/10 21:24:10;;;;;;;41.40;24.85;;;;;;;;;;4859840;29;20030;-96
2023/04/10 21:27:02;;;;;;;42.75;25.98;;;;;;;;;;4861493;29;20026;-96
2023/04/10 21:29:38;;;;;;;48.50;28.25;;;;;;;;;;4842368;29;20121;-95
2023/04/10 21:32:11;;;;;;;43.17;25.50;;;;;;;;;;4860335;29;20034;-96
2023/04/10 21:35:09;;;;;;;;;;;;;;;;;;;;;
2023/04/10 21:37:53;;;;;;;40.30;22.55;;;;;;;;;;4851825;29;20074;-96
2023/04/10 21:40:23;;;;;;;;;;;;;;;;;;4859671;29;20062;-96
2023/04/10 21:43:25;;;;;;;;;;;;;;;;;;;;;
2023/04/10 21:49:01;;;;;;;39.90;20.08;;;;;;;;;;4867058;29;20030;-96
2023/04/10 21:51:42;;;;;;;;;;;;;;;;;;;;;
2023/04/10 21:54:28;;;;;;;44.13;24.13;;;;;;;;;;4846484;29;20030;-94
2023/04/10 21:57:06;;;;;;;41.25;23.80;;;;;;;;;;4862320;29;20077;-96
2023/04/10 22:00:32;;;;;;;40.30;22.77;;;;;;;;;;4859032;29;20059;-95
2023/04/10 22:03:08;;;;;;;39.75;22.70;;;;;;;;;;4839641;29;20038;-94
2023/04/10 22:05:53;;;;;;;46.00;25.80;;;;;;;;;;4854723;29;20034;-96
2023/04/10 22:08:36;;;;;;;45.80;24.45;;;;;;;;;;4856220;29;20067;-95
2023/04/10 22:11:03;;;;;;;43.47;25.27;;;;;;;;;;4857085;29;20030;-95
2023/04/10 22:13:47;;;;;;;48.85;27.73;;;;;;;;;;4858300;29;20082;-93
2023/04/10 22:21:56;;;;;;;45.22;24.38;;;;;;;;;;4985249;23;20069;-95
2023/04/10 22:24:32;;;;;;;46.05;25.00;;;;;;;;;;4896187;29;20040;-95
2023/04/10 22:27:18;;;;;;;;;;;;;;;;;;;;;
2023/04/10 22:30:01;;;;;;;45.20;23.73;;;;;;;;;;4896051;29;20052;-96
2023/04/10 22:32:36;;;;;;;41.55;22.15;;;;;;;;;;4889627;29;20045;-96
2023/04/10 22:35:02;;;;;;;43.65;22.38;;;;;;;;;;4904901;29;20115;-94
2023/04/10 22:37:43;;;;;;;;;;;;;;;;;;4893107;29;20045;-96
2023/04/10 22:40:12;;;;;;;43.63;21.70;;;;;;;;;;4891842;29;19932;-95
2023/04/10 22:48:10;;;;;;;40.92;19.92;;;;;;;;;;4854323;29;20097;-96
2023/04/10 22:50:39;;;;;;;40.95;20.77;;;;;;;;;;4909977;29;20479;-96
2023/04/10 22:53:12;;;;;;;41.50;22.45;;;;;;;;;;4878053;29;20048;-96
2023/04/10 22:55:51;;;;;;;38.88;21.83;;;;;;;;;;4893568;29;20037;-96
2023/04/10 22:58:46;;;;;;;37.75;21.45;;;;;;;;;;4893992;29;20045;-96
2023/04/10 23:01:39;;;;;;;41.78;20.73;;;;;;;;;;4895090;29;20043;-96
2023/04/10 23:04:14;;;;;;;39.88;20.85;;;;;;;;;;4892093;29;20129;-95
2023/04/10 23:06:41;;;;;;;35.70;19.30;;;;;;;;;;4904997;29;20068;-96
2023/04/10 23:09:13;;;;;;;34.17;19.25;;;;;;;;;;4895530;29;20041;-96
2023/04/10 23:11:50;;;;;;;;;;;;;;;;;;;;;
2023/04/10 23:18:06;;;;;;;;;;;;;;;;;;;;;
2023/04/10 23:23:47;;;;;;;42.13;20.07;;;;;;;;;;4896803;29;20032;-96
2023/04/10 23:29:29;;;;;;;31.60;17.98;;;;;;;;;;4899979;29;20060;-96
2023/04/10 23:32:13;;;;;;;36.95;19.75;;;;;;;;;;4899205;29;20131;-96
2023/04/10 23:34:59;;;;;;;40.90;21.05;;;;;;;;;;4900249;29;20053;-96
2023/04/10 23:37:31;;;;;;;42.75;20.27;;;;;;;;;;4899311;29;20076;-96
2023/04/10 23:43:30;;;;;;;42.88;20.85;;;;;;;;;;4893948;29;20041;-95
2023/04/10 23:46:24;;;;;;;45.17;21.52;;;;;;;;;;4891162;29;20136;-96
2023/04/10 23:48:55;;;;;;;44.25;20.35;;;;;;;;;;4893666;29;20033;-96
2023/04/10 23:51:33;;;;;;;41.83;20.95;;;;;;;;;;4893259;29;20064;-95
2023/04/10 23:54:17;;;;;;;35.67;19.58;;;;;;;;;;4891096;29;20044;-95
2023/04/10 23:57:12;;;;;;;36.30;18.65;;;;;;;;;;4877948;29;20056;-96
2023/04/10 23:59:58;;;;;;;;;;;;;;;;;;;;;
